createdAt,value
2023-06-15T00:00:25.447Z,5.21
2023-06-15T00:01:25.458Z,5.32
2023-06-15T00:02:25.517Z,5.20
2023-06-15T00:03:25.648Z,5.15
2023-06-15T00:04:25.521Z,5.17
2023-06-15T00:05:25.519Z,5.18
2023-06-15T00:06:25.528Z,5.14
2023-06-15T00:07:25.535Z,5.28
2023-06-15T00:08:25.554Z,5.17
2023-06-15T00:09:25.573Z,5.07
2023-06-15T00:10:25.594Z,5.01
2023-06-15T00:11:25.618Z,5.10
2023-06-15T00:12:25.631Z,5.13
2023-06-15T00:13:25.652Z,5.14
2023-06-15T00:14:25.682Z,5.02
2023-06-15T00:15:25.670Z,4.97
2023-06-15T00:16:25.854Z,5.08
2023-06-15T00:17:25.765Z,5.01
2023-06-15T00:18:25.746Z,4.97
2023-06-15T00:19:25.741Z,5.03
2023-06-15T00:20:25.756Z,4.91
2023-06-15T00:21:25.769Z,4.93
2023-06-15T00:22:25.777Z,5.07
2023-06-15T00:23:25.792Z,4.92
2023-06-15T00:24:25.824Z,5.02
2023-06-15T00:25:25.812Z,4.81
2023-06-15T00:26:25.827Z,4.86
2023-06-15T00:27:25.845Z,4.78
2023-06-15T00:28:25.853Z,4.83
2023-06-15T00:29:25.884Z,4.90
2023-06-15T00:30:25.882Z,4.80
2023-06-15T00:31:25.892Z,4.77
2023-06-15T00:32:25.950Z,4.85
2023-06-15T00:33:25.975Z,4.77
2023-06-15T00:34:25.933Z,4.81
2023-06-15T00:35:25.947Z,4.81
2023-06-15T00:36:25.952Z,4.83
2023-06-15T00:37:25.973Z,4.74
2023-06-15T00:38:26.060Z,4.68
2023-06-15T00:39:26.004Z,4.75
2023-06-15T00:40:26.021Z,4.64
2023-06-15T00:41:26.021Z,4.75
2023-06-15T00:42:26.039Z,4.73
2023-06-15T00:43:26.057Z,4.63
2023-06-15T00:44:26.069Z,4.63
2023-06-15T00:45:26.088Z,4.64
2023-06-15T00:46:26.124Z,4.63
2023-06-15T00:47:26.138Z,4.55
2023-06-15T00:48:26.122Z,4.67
2023-06-15T00:49:26.129Z,4.55
2023-06-15T00:50:26.167Z,4.71
2023-06-15T00:51:26.161Z,4.60
2023-06-15T00:52:26.186Z,4.47
2023-06-15T00:53:26.186Z,4.55
2023-06-15T00:54:26.212Z,4.48
2023-06-15T00:55:26.214Z,4.52
2023-06-15T00:56:26.227Z,4.65
2023-06-15T00:57:26.243Z,4.39
2023-06-15T00:58:26.262Z,4.43
2023-06-15T00:59:26.268Z,4.48
2023-06-15T01:00:26.280Z,4.51
2023-06-15T01:01:26.364Z,4.41
2023-06-15T01:02:26.302Z,4.51
2023-06-15T01:03:26.358Z,4.44
2023-06-15T01:04:26.342Z,4.40
2023-06-15T01:05:26.344Z,4.39
2023-06-15T01:06:26.359Z,4.46
2023-06-15T01:07:26.373Z,4.28
2023-06-15T01:08:26.403Z,4.43
2023-06-15T01:09:26.429Z,4.41
2023-06-15T01:10:26.424Z,4.44
2023-06-15T01:11:28.026Z,4.27
2023-06-15T01:12:26.394Z,4.32
2023-06-15T01:13:26.375Z,4.27
2023-06-15T01:14:26.372Z,4.33
2023-06-15T01:15:26.360Z,4.18
2023-06-15T01:16:26.347Z,4.27
2023-06-15T01:17:26.300Z,4.28
2023-06-15T01:18:26.263Z,4.26
2023-06-15T01:19:26.214Z,4.21
2023-06-15T01:20:26.192Z,4.31
2023-06-15T01:21:26.194Z,4.31
2023-06-15T01:22:26.179Z,4.31
2023-06-15T01:23:26.173Z,4.23
2023-06-15T01:24:26.143Z,4.15
2023-06-15T01:25:26.076Z,4.13
2023-06-15T01:26:26.025Z,4.25
2023-06-15T01:27:26.002Z,4.17
2023-06-15T01:28:25.996Z,4.05
2023-06-15T01:29:25.959Z,4.09
2023-06-15T01:30:25.929Z,4.22
2023-06-15T01:31:26.005Z,4.10
2023-06-15T01:32:25.904Z,4.02
2023-06-15T01:33:25.861Z,4.01
2023-06-15T01:34:25.866Z,4.10
2023-06-15T01:35:25.809Z,4.06
2023-06-15T01:36:25.779Z,4.07
2023-06-15T01:37:25.764Z,4.06
2023-06-15T01:38:25.725Z,3.99
2023-06-15T01:39:25.695Z,4.01
2023-06-15T01:40:25.672Z,3.97
2023-06-15T01:41:25.741Z,4.01
2023-06-15T01:42:25.624Z,3.97
2023-06-15T01:43:25.627Z,3.95
2023-06-15T01:44:25.575Z,4.04
2023-06-15T01:45:25.554Z,3.94
2023-06-15T01:46:25.546Z,4.00
2023-06-15T01:47:25.537Z,3.96
2023-06-15T01:48:25.469Z,3.94
2023-06-15T01:49:25.446Z,3.83
2023-06-15T01:50:25.415Z,3.93
2023-06-15T01:51:25.385Z,3.89
2023-06-15T01:52:25.360Z,3.93
2023-06-15T01:53:25.340Z,3.79
2023-06-15T01:54:25.306Z,3.92
2023-06-15T01:55:25.305Z,3.85
2023-06-15T01:56:25.270Z,3.82
2023-06-15T01:57:31.946Z,3.98
2023-06-15T01:58:26.227Z,3.99
2023-06-15T01:59:25.188Z,3.88
2023-06-15T02:00:25.177Z,3.85
2023-06-15T02:01:25.175Z,3.79
2023-06-15T02:02:25.142Z,3.87
2023-06-15T02:03:25.085Z,3.84
2023-06-15T02:04:25.059Z,3.84
2023-06-15T02:05:25.034Z,3.81
2023-06-15T02:06:24.997Z,3.77
2023-06-15T02:07:24.981Z,3.76
2023-06-15T02:08:24.957Z,3.75
2023-06-15T02:09:24.927Z,3.75
2023-06-15T02:10:24.907Z,3.72
2023-06-15T02:11:24.884Z,3.65
2023-06-15T02:12:24.873Z,3.69
2023-06-15T02:13:24.876Z,3.79
2023-06-15T02:14:24.892Z,3.64
2023-06-15T02:15:24.909Z,3.68
2023-06-15T02:16:24.926Z,3.62
2023-06-15T02:17:24.950Z,3.68
2023-06-15T02:18:24.981Z,3.70
2023-06-15T02:19:25.041Z,3.61
2023-06-15T02:20:25.018Z,3.72
2023-06-15T02:21:25.021Z,3.60
2023-06-15T02:22:25.044Z,3.63
2023-06-15T02:23:25.055Z,3.56
2023-06-15T02:24:25.171Z,3.62
2023-06-15T02:25:25.146Z,3.58
2023-06-15T02:26:25.111Z,3.52
2023-06-15T02:27:25.128Z,3.50
2023-06-15T02:28:25.144Z,3.56
2023-06-15T02:29:25.151Z,3.57
2023-06-15T02:30:25.187Z,3.59
2023-06-15T02:31:25.199Z,3.58
2023-06-15T02:32:25.238Z,3.52
2023-06-15T02:33:25.233Z,3.53
2023-06-15T02:34:25.303Z,3.48
2023-06-15T02:35:25.266Z,3.48
2023-06-15T02:36:25.289Z,3.51
2023-06-15T02:37:25.301Z,3.47
2023-06-15T02:38:25.327Z,3.49
2023-06-15T02:39:25.340Z,3.53
2023-06-15T02:40:25.355Z,3.48
2023-06-15T02:41:25.368Z,3.40
2023-06-15T02:42:25.393Z,3.41
2023-06-15T02:43:25.419Z,3.37
2023-06-15T02:44:25.445Z,3.37
2023-06-15T02:45:25.450Z,3.49
2023-06-15T02:46:25.474Z,3.39
2023-06-15T02:47:25.538Z,3.37
2023-06-15T02:48:25.514Z,3.48
2023-06-15T02:49:25.536Z,3.41
2023-06-15T02:50:25.597Z,3.40
2023-06-15T02:51:25.566Z,3.39
2023-06-15T02:52:25.593Z,3.39
2023-06-15T02:53:25.643Z,3.44
2023-06-15T02:54:25.637Z,3.36
2023-06-15T02:55:25.660Z,3.35
2023-06-15T02:56:25.676Z,3.36
2023-06-15T02:57:25.703Z,3.28
2023-06-15T02:58:25.741Z,3.28
2023-06-15T02:59:25.755Z,3.35
2023-06-15T03:00:25.762Z,3.26
2023-06-15T03:01:25.790Z,3.37
2023-06-15T03:02:25.810Z,3.31
2023-06-15T03:03:25.805Z,3.34
2023-06-15T03:04:25.826Z,3.19
2023-06-15T03:05:25.843Z,3.22
2023-06-15T03:06:25.906Z,3.28
2023-06-15T03:07:25.879Z,3.27
2023-06-15T03:08:25.899Z,3.22
2023-06-15T03:09:25.925Z,3.22
2023-06-15T03:10:25.937Z,3.28
2023-06-15T03:11:25.979Z,3.18
2023-06-15T03:12:25.972Z,3.24
2023-06-15T03:13:25.987Z,3.19
2023-06-15T03:14:26.010Z,3.19
2023-06-15T03:15:26.030Z,3.19
2023-06-15T03:16:26.111Z,3.26
2023-06-15T03:17:26.183Z,3.14
2023-06-15T03:18:26.093Z,3.16
2023-06-15T03:19:26.119Z,3.14
2023-06-15T03:20:26.242Z,3.21
2023-06-15T03:21:26.184Z,3.24
2023-06-15T03:22:26.167Z,3.09
2023-06-15T03:23:26.199Z,3.09
2023-06-15T03:24:26.323Z,3.07
2023-06-15T03:25:26.232Z,3.11
2023-06-15T03:26:26.241Z,3.19
2023-06-15T03:27:26.267Z,3.07
2023-06-15T03:28:26.285Z,3.04
2023-06-15T03:29:26.298Z,3.05
2023-06-15T03:30:26.313Z,3.14
2023-06-15T03:31:26.335Z,3.16
2023-06-15T03:32:26.404Z,3.10
2023-06-15T03:33:26.388Z,3.12
2023-06-15T03:34:26.401Z,3.10
2023-06-15T03:35:26.416Z,3.07
2023-06-15T03:36:26.435Z,3.09
2023-06-15T03:37:26.451Z,3.01
2023-06-15T03:38:26.471Z,3.02
2023-06-15T03:39:26.515Z,3.00
2023-06-15T03:40:26.520Z,3.03
2023-06-15T03:41:26.546Z,3.05
2023-06-15T03:42:26.560Z,2.96
2023-06-15T03:43:26.580Z,2.99
2023-06-15T03:44:26.640Z,3.01
2023-06-15T03:45:26.617Z,3.07
2023-06-15T03:46:26.657Z,3.05
2023-06-15T03:47:26.691Z,3.03
2023-06-15T03:48:26.685Z,2.96
2023-06-15T03:49:26.710Z,2.99
2023-06-15T03:50:26.738Z,2.96
2023-06-15T03:51:26.760Z,2.98
2023-06-15T03:52:26.788Z,2.89
2023-06-15T03:53:26.794Z,2.98
2023-06-15T03:54:26.866Z,2.98
2023-06-15T03:55:26.846Z,2.93
2023-06-15T03:56:26.891Z,2.90
2023-06-15T03:57:26.893Z,2.90
2023-06-15T03:58:26.909Z,2.90
2023-06-15T03:59:26.930Z,2.95
2023-06-15T04:00:26.954Z,2.87
2023-06-15T04:01:27.000Z,2.86
2023-06-15T04:02:27.063Z,2.86
2023-06-15T04:03:27.080Z,2.86
2023-06-15T04:04:27.080Z,2.91
2023-06-15T04:05:27.081Z,2.94
2023-06-15T04:06:27.082Z,2.83
2023-06-15T04:07:27.109Z,2.83
2023-06-15T04:08:27.134Z,2.77
2023-06-15T04:09:27.193Z,2.87
2023-06-15T04:10:27.254Z,2.80
2023-06-15T04:11:27.225Z,2.88
2023-06-15T04:12:27.227Z,2.88
2023-06-15T04:13:27.280Z,2.87
2023-06-15T04:14:27.293Z,2.82
2023-06-15T04:15:27.300Z,2.77
2023-06-15T04:16:27.311Z,2.88
2023-06-15T04:17:27.372Z,2.74
2023-06-15T04:18:27.459Z,2.82
2023-06-15T04:19:27.395Z,2.76
2023-06-15T04:20:27.404Z,2.83
2023-06-15T04:21:27.439Z,2.83
2023-06-15T04:22:27.448Z,2.75
2023-06-15T04:23:27.483Z,2.77
2023-06-15T04:24:27.552Z,2.73
2023-06-15T04:25:27.533Z,2.79
2023-06-15T04:26:27.579Z,2.74
2023-06-15T04:27:27.586Z,2.77
2023-06-15T04:28:27.635Z,2.79
2023-06-15T04:29:27.642Z,2.76
2023-06-15T04:30:27.660Z,2.70
2023-06-15T04:31:27.684Z,2.75
2023-06-15T04:32:27.712Z,2.70
2023-06-15T04:33:27.718Z,2.70
2023-06-15T04:34:27.768Z,2.79
2023-06-15T04:35:27.781Z,2.71
2023-06-15T04:36:27.801Z,2.72
2023-06-15T04:37:27.833Z,2.71
2023-06-15T04:38:27.862Z,2.71
2023-06-15T04:39:27.887Z,2.74
2023-06-15T04:40:27.935Z,2.72
2023-06-15T04:41:27.947Z,2.71
2023-06-15T04:42:27.981Z,2.67
2023-06-15T04:43:28.006Z,2.66
2023-06-15T04:44:28.016Z,2.68
2023-06-15T04:45:28.066Z,2.68
2023-06-15T04:46:28.072Z,2.65
2023-06-15T04:47:28.130Z,2.72
2023-06-15T04:48:28.146Z,2.72
2023-06-15T04:49:28.168Z,2.66
2023-06-15T04:50:28.197Z,2.68
2023-06-15T04:51:28.228Z,2.63
2023-06-15T04:52:28.254Z,2.59
2023-06-15T04:53:28.278Z,2.68
2023-06-15T04:54:28.306Z,2.62
2023-06-15T04:55:28.314Z,2.60
2023-06-15T04:56:28.343Z,2.66
2023-06-15T04:57:28.380Z,2.60
2023-06-15T04:58:28.412Z,2.65
2023-06-15T04:59:28.447Z,2.71
2023-06-15T05:00:28.468Z,2.61
2023-06-15T05:01:28.502Z,2.74
2023-06-15T05:02:28.599Z,2.84
2023-06-15T05:03:28.595Z,3.15
2023-06-15T05:04:28.586Z,3.36
2023-06-15T05:05:28.619Z,3.54
2023-06-15T05:06:28.647Z,3.62
2023-06-15T05:07:28.664Z,3.73
2023-06-15T05:08:28.713Z,3.84
2023-06-15T05:09:28.760Z,4.04
2023-06-15T05:10:44.772Z,4.11
2023-06-15T05:11:29.758Z,4.12
2023-06-15T05:12:28.740Z,4.14
2023-06-15T05:13:28.734Z,4.22
2023-06-15T05:14:28.712Z,4.34
2023-06-15T05:15:28.695Z,4.70
2023-06-15T05:16:28.693Z,4.73
2023-06-15T05:17:28.725Z,4.76
2023-06-15T05:18:28.676Z,4.82
2023-06-15T05:19:28.655Z,4.86
2023-06-15T05:20:28.633Z,4.78
2023-06-15T05:21:28.620Z,5.11
2023-06-15T05:22:28.613Z,4.85
2023-06-15T05:23:28.680Z,4.89
2023-06-15T05:24:28.768Z,4.89
2023-06-15T05:25:28.777Z,4.60
2023-06-15T05:26:30.633Z,3.97
2023-06-15T05:27:28.758Z,3.22
2023-06-15T05:28:28.790Z,2.66
2023-06-15T05:29:28.797Z,2.01
2023-06-15T05:30:28.904Z,1.49
2023-06-15T05:31:28.886Z,1.22
2023-06-15T05:32:28.863Z,0.97
2023-06-15T05:33:28.880Z,0.76
2023-06-15T05:34:28.871Z,0.57
2023-06-15T05:35:28.889Z,0.50
2023-06-15T05:36:34.520Z,0.49
2023-06-15T05:37:29.899Z,0.43
2023-06-15T05:38:28.910Z,0.37
2023-06-15T05:39:28.936Z,0.34
2023-06-15T05:40:28.935Z,0.34
2023-06-15T05:41:28.938Z,0.34
2023-06-15T05:42:28.967Z,0.34
2023-06-15T05:43:28.955Z,0.34
2023-06-15T05:44:28.978Z,0.40
2023-06-15T05:45:29.018Z,0.50
2023-06-15T05:46:28.982Z,0.52
2023-06-15T05:47:29.065Z,0.55
2023-06-15T05:48:28.987Z,0.60
2023-06-15T05:49:28.991Z,0.65
2023-06-15T05:50:29.001Z,0.73
2023-06-15T05:51:28.980Z,0.92
2023-06-15T05:52:30.252Z,1.10
2023-06-15T05:53:28.954Z,1.22
2023-06-15T05:54:28.954Z,1.28
2023-06-15T05:55:28.933Z,1.56
2023-06-15T05:56:28.936Z,1.84
2023-06-15T05:57:28.981Z,1.88
2023-06-15T05:58:29.021Z,2.18
2023-06-15T05:59:34.210Z,2.41
2023-06-15T06:00:30.041Z,2.42
2023-06-15T06:01:29.030Z,2.44
2023-06-15T06:02:29.038Z,2.57
2023-06-15T06:03:28.995Z,2.84
2023-06-15T06:04:28.986Z,3.33
2023-06-15T06:05:28.968Z,3.51
2023-06-15T06:06:28.990Z,3.64
2023-06-15T06:07:28.931Z,3.60
2023-06-15T06:08:28.921Z,3.63
2023-06-15T06:09:28.915Z,3.69
2023-06-15T06:10:28.942Z,3.76
2023-06-15T06:11:28.897Z,3.72
2023-06-15T06:12:28.945Z,3.69
2023-06-15T06:13:28.988Z,3.84
2023-06-15T06:14:29.039Z,3.82
2023-06-15T06:15:29.054Z,3.88
2023-06-15T06:16:29.075Z,3.97
2023-06-15T06:17:45.990Z,3.93
2023-06-15T06:18:30.146Z,3.93
2023-06-15T06:19:29.064Z,3.95
2023-06-15T06:20:29.044Z,4.09
2023-06-15T06:21:29.017Z,4.28
2023-06-15T06:22:29.004Z,4.74
2023-06-15T06:23:28.999Z,4.91
2023-06-15T06:24:29.043Z,5.24
2023-06-15T06:25:28.999Z,5.54
2023-06-15T06:26:28.980Z,5.73
2023-06-15T06:27:28.948Z,5.50
2023-06-15T06:28:28.951Z,5.29
2023-06-15T06:29:28.957Z,5.75
2023-06-15T06:30:28.989Z,6.01
2023-06-15T06:31:29.027Z,6.36
2023-06-15T06:32:29.102Z,6.61
2023-06-15T06:33:29.073Z,6.80
2023-06-15T06:34:29.113Z,7.07
2023-06-15T06:35:29.136Z,7.28
2023-06-15T06:36:29.860Z,7.38
2023-06-15T06:37:29.178Z,7.58
2023-06-15T06:38:29.201Z,7.54
2023-06-15T06:39:29.234Z,8.01
2023-06-15T06:40:29.277Z,7.87
2023-06-15T06:41:29.289Z,8.10
2023-06-15T06:42:29.322Z,8.00
2023-06-15T06:43:29.360Z,7.96
2023-06-15T06:44:29.389Z,8.33
2023-06-15T06:45:30.559Z,8.17
2023-06-15T06:46:29.438Z,8.45
2023-06-15T06:47:29.522Z,8.41
2023-06-15T06:48:29.496Z,8.41
2023-06-15T06:49:29.529Z,8.45
2023-06-15T06:50:29.566Z,8.80
2023-06-15T06:51:29.646Z,8.67
2023-06-15T06:52:29.609Z,8.82
2023-06-15T06:53:29.712Z,8.96
2023-06-15T06:54:29.668Z,8.83
2023-06-15T06:55:29.687Z,8.72
2023-06-15T06:56:29.734Z,9.10
2023-06-15T06:57:29.755Z,9.22
2023-06-15T06:58:29.783Z,8.91
2023-06-15T06:59:42.455Z,9.29
2023-06-15T07:00:30.798Z,9.30
2023-06-15T07:01:29.780Z,9.29
2023-06-15T07:02:29.893Z,9.23
2023-06-15T07:03:29.807Z,9.39
2023-06-15T07:04:29.725Z,9.52
2023-06-15T07:05:29.701Z,9.12
2023-06-15T07:06:29.685Z,9.06
2023-06-15T07:07:29.667Z,8.99
2023-06-15T07:08:30.355Z,9.28
2023-06-15T07:09:29.598Z,9.05
2023-06-15T07:10:29.577Z,9.01
2023-06-15T07:11:29.550Z,9.01
2023-06-15T07:12:29.534Z,8.95
2023-06-15T07:13:29.512Z,8.53
2023-06-15T07:14:29.510Z,8.76
2023-06-15T07:15:29.485Z,8.45
2023-06-15T07:16:29.482Z,8.68
2023-06-15T07:17:29.494Z,8.74
2023-06-15T07:18:30.377Z,8.69
2023-06-15T07:19:29.445Z,8.92
2023-06-15T07:20:29.460Z,8.91
2023-06-15T07:21:29.475Z,9.14
2023-06-15T07:22:29.479Z,9.32
2023-06-15T07:23:38.156Z,9.41
2023-06-15T07:24:31.563Z,9.43
2023-06-15T07:25:29.486Z,9.51
2023-06-15T07:26:29.457Z,9.78
2023-06-15T07:27:29.446Z,10.28
2023-06-15T07:28:29.435Z,11.07
2023-06-15T07:29:29.396Z,11.07
2023-06-15T07:30:29.379Z,11.42
2023-06-15T07:31:29.883Z,11.60
2023-06-15T07:32:29.363Z,11.58
2023-06-15T07:33:29.318Z,11.46
2023-06-15T07:34:29.932Z,11.76
2023-06-15T07:35:29.267Z,11.74
2023-06-15T07:36:29.280Z,11.98
2023-06-15T07:37:29.366Z,11.87
2023-06-15T07:38:29.309Z,11.91
2023-06-15T07:39:29.333Z,11.72
2023-06-15T07:40:29.352Z,11.76
2023-06-15T07:41:29.374Z,11.50
2023-06-15T07:42:29.386Z,11.57
2023-06-15T07:43:29.416Z,11.62
2023-06-15T07:44:29.431Z,11.41
2023-06-15T07:45:29.441Z,11.31
2023-06-15T07:46:29.454Z,11.38
2023-06-15T07:47:29.532Z,11.10
2023-06-15T07:48:29.520Z,11.04
2023-06-15T07:49:44.268Z,10.62
2023-06-15T07:50:30.503Z,10.62
2023-06-15T07:51:41.344Z,9.50
2023-06-15T07:52:30.457Z,8.14
2023-06-15T07:53:29.445Z,7.87
2023-06-15T07:54:29.416Z,7.10
2023-06-15T07:55:29.973Z,5.65
2023-06-15T07:56:29.377Z,4.88
2023-06-15T07:57:29.358Z,4.43
2023-06-15T07:58:29.336Z,4.23
2023-06-15T07:59:29.318Z,4.08
2023-06-15T08:00:29.308Z,4.06
2023-06-15T08:01:29.283Z,4.30
2023-06-15T08:02:29.254Z,4.76
2023-06-15T08:03:29.266Z,4.94
2023-06-15T08:04:29.207Z,5.21
2023-06-15T08:05:29.201Z,5.28
2023-06-15T08:06:29.230Z,5.76
2023-06-15T08:07:29.246Z,5.95
2023-06-15T08:08:29.982Z,6.44
2023-06-15T08:09:29.304Z,6.99
2023-06-15T08:10:29.304Z,7.13
2023-06-15T08:11:29.386Z,7.65
2023-06-15T08:12:29.375Z,7.94
2023-06-15T08:13:29.426Z,8.20
2023-06-15T08:14:29.468Z,8.26
2023-06-15T08:15:29.491Z,8.08
2023-06-15T08:16:29.543Z,7.75
2023-06-15T08:17:29.601Z,6.55
2023-06-15T08:18:29.652Z,5.63
2023-06-15T08:19:29.685Z,5.81
2023-06-15T08:20:29.727Z,5.81
2023-06-15T08:21:29.782Z,5.57
2023-06-15T08:22:29.846Z,5.31
2023-06-15T08:23:29.891Z,5.42
2023-06-15T08:24:30.052Z,5.35
2023-06-15T08:25:29.989Z,5.11
2023-06-15T08:26:29.972Z,4.77
2023-06-15T08:27:30.003Z,4.77
2023-06-15T08:28:34.036Z,4.61
2023-06-15T08:29:30.001Z,4.61
2023-06-15T08:30:29.968Z,4.45
2023-06-15T08:31:29.951Z,4.29
2023-06-15T08:32:29.931Z,4.50
2023-06-15T08:33:29.884Z,4.23
2023-06-15T08:34:29.865Z,4.22
2023-06-15T08:35:29.828Z,4.43
2023-06-15T08:36:29.813Z,4.65
2023-06-15T08:37:29.843Z,4.91
2023-06-15T08:38:29.762Z,5.33
2023-06-15T08:39:29.736Z,5.50
2023-06-15T08:40:29.715Z,5.77
2023-06-15T08:41:29.692Z,5.89
2023-06-15T08:42:29.664Z,6.03
2023-06-15T08:43:29.787Z,5.95
2023-06-15T08:44:29.624Z,6.18
2023-06-15T08:45:29.596Z,6.23
2023-06-15T08:46:29.598Z,5.97
2023-06-15T08:47:29.613Z,5.69
2023-06-15T08:48:29.613Z,5.60
2023-06-15T08:49:29.622Z,5.25
2023-06-15T08:50:29.653Z,5.24
2023-06-15T08:51:30.512Z,6.37
2023-06-15T08:52:29.827Z,6.82
2023-06-15T08:53:29.744Z,7.05
2023-06-15T08:54:29.727Z,6.80
2023-06-15T08:55:29.751Z,7.05
2023-06-15T08:56:29.753Z,7.24
2023-06-15T08:57:29.763Z,7.56
2023-06-15T08:58:29.759Z,7.82
2023-06-15T08:59:30.049Z,7.77
2023-06-15T09:00:29.794Z,7.81
2023-06-15T09:01:29.790Z,7.87
2023-06-15T09:02:29.823Z,7.68
2023-06-15T09:03:29.959Z,7.70
2023-06-15T09:04:29.892Z,7.89
2023-06-15T09:05:29.849Z,7.68
2023-06-15T09:06:29.837Z,7.52
2023-06-15T09:07:29.837Z,7.47
2023-06-15T09:08:29.864Z,7.50
2023-06-15T09:09:29.876Z,7.61
2023-06-15T09:10:29.880Z,7.73
2023-06-15T09:11:31.531Z,7.89
2023-06-15T09:12:29.932Z,7.97
2023-06-15T09:13:29.828Z,8.12
2023-06-15T09:14:29.810Z,8.28
2023-06-15T09:15:29.903Z,8.17
2023-06-15T09:16:29.757Z,7.73
2023-06-15T09:17:29.812Z,7.68
2023-06-15T09:18:29.708Z,7.57
2023-06-15T09:19:29.661Z,7.51
2023-06-15T09:20:29.636Z,7.29
2023-06-15T09:21:29.612Z,7.38
2023-06-15T09:22:29.631Z,7.31
2023-06-15T09:23:29.584Z,7.68
2023-06-15T09:24:29.609Z,7.72
2023-06-15T09:25:29.536Z,8.04
2023-06-15T09:26:29.509Z,7.84
2023-06-15T09:27:29.501Z,7.81
2023-06-15T09:28:29.490Z,7.93
2023-06-15T09:29:29.497Z,8.13
2023-06-15T09:30:29.450Z,8.60
2023-06-15T09:31:29.527Z,8.53
2023-06-15T09:32:29.484Z,8.68
2023-06-15T09:33:29.373Z,8.85
2023-06-15T09:34:29.351Z,9.03
2023-06-15T09:35:29.332Z,9.12
2023-06-15T09:36:29.971Z,8.68
2023-06-15T09:37:30.042Z,8.82
2023-06-15T09:38:29.291Z,8.35
2023-06-15T09:39:30.977Z,8.04
2023-06-15T09:40:29.243Z,7.96
2023-06-15T09:41:29.220Z,7.86
2023-06-15T09:42:29.273Z,8.06
2023-06-15T09:43:29.172Z,8.07
2023-06-15T09:44:29.196Z,8.21
2023-06-15T09:45:29.142Z,8.32
2023-06-15T09:46:29.129Z,8.58
2023-06-15T09:47:29.154Z,8.55
2023-06-15T09:48:29.077Z,8.76
2023-06-15T09:49:29.054Z,8.68
2023-06-15T09:50:29.036Z,8.76
2023-06-15T09:51:31.726Z,8.69
2023-06-15T09:52:28.992Z,9.01
2023-06-15T09:53:28.986Z,8.75
2023-06-15T09:54:28.961Z,8.91
2023-06-15T09:55:28.933Z,8.70
2023-06-15T09:56:31.346Z,8.48
2023-06-15T09:57:29.136Z,8.37
2023-06-15T09:58:29.140Z,7.97
2023-06-15T09:59:29.164Z,7.92
2023-06-15T10:00:29.167Z,7.81
2023-06-15T10:01:29.174Z,8.38
2023-06-15T10:02:29.277Z,8.48
2023-06-15T10:03:30.092Z,8.51
2023-06-15T10:04:29.392Z,8.66
2023-06-15T10:05:29.228Z,9.12
2023-06-15T10:06:29.246Z,8.97
2023-06-15T10:07:29.252Z,9.13
2023-06-15T10:08:29.286Z,9.14
2023-06-15T10:09:29.301Z,8.83
2023-06-15T10:10:29.377Z,8.54
2023-06-15T10:11:29.430Z,8.26
2023-06-15T10:12:29.468Z,8.13
2023-06-15T10:13:29.511Z,8.08
2023-06-15T10:14:29.570Z,7.14
2023-06-15T10:15:32.235Z,7.14
2023-06-15T10:16:29.535Z,7.15
2023-06-15T10:17:29.527Z,7.01
2023-06-15T10:18:29.517Z,6.54
2023-06-15T10:19:29.486Z,6.65
2023-06-15T10:20:29.472Z,6.75
2023-06-15T10:21:29.438Z,6.77
2023-06-15T10:22:29.423Z,7.09
2023-06-15T10:23:40.938Z,7.11
2023-06-15T10:24:30.507Z,7.12
2023-06-15T10:25:29.360Z,7.19
2023-06-15T10:26:29.340Z,7.38
2023-06-15T10:27:30.016Z,7.75
2023-06-15T10:28:29.309Z,8.53
2023-06-15T10:29:29.268Z,8.76
2023-06-15T10:30:29.237Z,9.11
2023-06-15T10:31:29.205Z,9.10
2023-06-15T10:32:29.204Z,9.52
2023-06-15T10:33:29.156Z,9.30
2023-06-15T10:34:29.123Z,9.49
2023-06-15T10:35:29.111Z,9.28
2023-06-15T10:36:29.072Z,9.80
2023-06-15T10:37:29.042Z,9.92
2023-06-15T10:38:29.019Z,9.76
2023-06-15T10:39:28.996Z,9.68
2023-06-15T10:40:28.968Z,9.99
2023-06-15T10:41:28.947Z,9.59
2023-06-15T10:42:28.926Z,9.74
2023-06-15T10:43:28.944Z,9.80
2023-06-15T10:44:28.964Z,9.52
2023-06-15T10:45:29.000Z,9.34
2023-06-15T10:46:29.030Z,9.61
2023-06-15T10:47:29.087Z,9.71
2023-06-15T10:48:29.099Z,9.70
2023-06-15T10:49:29.078Z,9.64
2023-06-15T10:50:29.097Z,9.59
2023-06-15T10:51:29.121Z,9.63
2023-06-15T10:52:29.229Z,9.68
2023-06-15T10:53:29.174Z,9.40
2023-06-15T10:54:29.239Z,9.56
2023-06-15T10:55:29.236Z,9.42
2023-06-15T10:56:29.287Z,9.66
2023-06-15T10:57:29.313Z,9.73
2023-06-15T10:58:29.344Z,9.61
2023-06-15T10:59:29.388Z,9.33
2023-06-15T11:00:29.506Z,9.30
2023-06-15T11:01:29.461Z,8.19
2023-06-15T11:02:29.922Z,8.05
2023-06-15T11:03:29.553Z,7.67
2023-06-15T11:04:29.663Z,7.37
2023-06-15T11:05:29.658Z,7.43
2023-06-15T11:06:29.717Z,7.35
2023-06-15T11:07:29.776Z,7.73
2023-06-15T11:08:29.822Z,7.58
2023-06-15T11:09:29.867Z,7.88
2023-06-15T11:10:29.935Z,7.54
2023-06-15T11:11:29.969Z,7.77
2023-06-15T11:12:30.000Z,7.87
2023-06-15T11:13:30.060Z,8.01
2023-06-15T11:14:30.055Z,8.31
2023-06-15T11:15:30.058Z,8.51
2023-06-15T11:16:30.066Z,8.59
2023-06-15T11:17:30.141Z,8.71
2023-06-15T11:18:30.086Z,9.01
2023-06-15T11:19:30.112Z,7.91
2023-06-15T11:20:30.108Z,6.76
2023-06-15T11:21:30.169Z,6.35
2023-06-15T11:22:30.146Z,6.11
2023-06-15T11:23:30.202Z,5.88
2023-06-15T11:24:30.291Z,6.16
2023-06-15T11:25:30.149Z,6.58
2023-06-15T11:26:30.224Z,6.24
2023-06-15T11:27:30.157Z,6.28
2023-06-15T11:28:36.679Z,6.70
2023-06-15T11:29:31.117Z,6.72
2023-06-15T11:30:31.279Z,6.81
2023-06-15T11:31:30.669Z,6.30
2023-06-15T11:32:30.076Z,5.78
2023-06-15T11:33:30.025Z,5.99
2023-06-15T11:34:29.977Z,6.04
2023-06-15T11:35:29.952Z,6.10
2023-06-15T11:36:29.922Z,6.02
2023-06-15T11:37:29.897Z,5.51
2023-06-15T11:38:29.876Z,5.54
2023-06-15T11:39:29.837Z,5.53
2023-06-15T11:40:29.805Z,5.94
2023-06-15T11:41:29.783Z,6.30
2023-06-15T11:42:29.766Z,6.32
2023-06-15T11:43:29.737Z,5.54
2023-06-15T11:44:29.702Z,5.84
2023-06-15T11:45:29.679Z,5.39
2023-06-15T11:46:29.655Z,5.40
2023-06-15T11:47:29.684Z,5.49
2023-06-15T11:48:29.604Z,5.78
2023-06-15T11:49:29.584Z,6.09
2023-06-15T11:50:29.551Z,6.45
2023-06-15T11:51:29.523Z,6.74
2023-06-15T11:52:29.484Z,7.07
2023-06-15T11:53:29.460Z,7.36
2023-06-15T11:54:44.895Z,7.19
2023-06-15T11:55:30.394Z,7.20
2023-06-15T11:56:29.362Z,6.86
2023-06-15T11:57:29.329Z,6.00
2023-06-15T11:58:29.306Z,5.48
2023-06-15T11:59:29.271Z,5.04
2023-06-15T12:00:29.229Z,4.81
2023-06-15T12:01:31.295Z,4.55
2023-06-15T12:02:29.195Z,4.05
2023-06-15T12:03:29.176Z,4.02
2023-06-15T12:04:29.244Z,4.02
2023-06-15T12:05:29.111Z,4.14
2023-06-15T12:06:29.072Z,4.31
2023-06-15T12:07:38.100Z,4.64
2023-06-15T12:08:30.024Z,4.66
2023-06-15T12:09:28.991Z,4.73
2023-06-15T12:10:28.958Z,4.85
2023-06-15T12:11:29.042Z,5.34
2023-06-15T12:12:28.895Z,5.99
2023-06-15T12:13:28.867Z,6.31
2023-06-15T12:14:28.866Z,6.14
2023-06-15T12:15:28.809Z,6.15
2023-06-15T12:16:28.799Z,6.22
2023-06-15T12:17:28.760Z,5.93
2023-06-15T12:18:28.785Z,5.59
2023-06-15T12:19:28.685Z,4.05
2023-06-15T12:20:28.655Z,3.90
2023-06-15T12:21:28.627Z,3.74
2023-06-15T12:22:36.428Z,3.62
2023-06-15T12:23:29.552Z,3.59
2023-06-15T12:24:28.595Z,3.30
2023-06-15T12:25:28.526Z,3.18
2023-06-15T12:26:28.470Z,3.55
2023-06-15T12:27:28.500Z,4.24
2023-06-15T12:28:28.417Z,4.77
2023-06-15T12:29:29.142Z,3.93
2023-06-15T12:30:28.352Z,3.84
2023-06-15T12:31:28.317Z,3.85
2023-06-15T12:32:28.377Z,4.27
2023-06-15T12:33:28.303Z,4.13
2023-06-15T12:34:28.231Z,4.16
2023-06-15T12:35:29.315Z,4.35
2023-06-15T12:36:28.170Z,4.61
2023-06-15T12:37:33.060Z,4.75
2023-06-15T12:38:29.130Z,4.76
2023-06-15T12:39:28.114Z,4.84
2023-06-15T12:40:28.058Z,5.08
2023-06-15T12:41:28.037Z,5.51
2023-06-15T12:42:28.592Z,6.26
2023-06-15T12:43:27.964Z,6.10
2023-06-15T12:44:27.948Z,6.01
2023-06-15T12:45:27.944Z,6.14
2023-06-15T12:46:27.956Z,5.62
2023-06-15T12:47:27.877Z,5.73
2023-06-15T12:48:28.650Z,5.91
2023-06-15T12:49:27.828Z,6.28
2023-06-15T12:50:27.854Z,6.29
2023-06-15T12:51:28.657Z,6.54
2023-06-15T12:52:27.809Z,6.79
2023-06-15T12:53:27.845Z,7.12
2023-06-15T12:54:27.934Z,7.42
2023-06-15T12:55:27.899Z,7.58
2023-06-15T12:56:27.932Z,7.97
2023-06-15T12:57:27.949Z,8.33
2023-06-15T12:58:27.973Z,8.40
2023-06-15T12:59:27.997Z,8.73
2023-06-15T13:00:28.057Z,8.66
2023-06-15T13:01:28.075Z,8.81
2023-06-15T13:02:28.156Z,9.05
2023-06-15T13:03:28.805Z,9.32
2023-06-15T13:04:28.300Z,9.61
2023-06-15T13:05:28.231Z,9.55
2023-06-15T13:06:28.188Z,9.91
2023-06-15T13:07:28.137Z,10.46
2023-06-15T13:08:28.112Z,10.85
2023-06-15T13:09:28.119Z,11.22
2023-06-15T13:10:28.133Z,11.11
2023-06-15T13:11:28.123Z,11.64
2023-06-15T13:12:28.105Z,11.66
2023-06-15T13:13:28.078Z,11.64
2023-06-15T13:14:28.094Z,12.04
2023-06-15T13:15:28.149Z,12.11
2023-06-15T13:16:28.212Z,12.31
2023-06-15T13:17:28.109Z,12.38